createdAt,value
2018-04-07T00:00:01.292Z,78.70
2018-04-07T00:02:29.140Z,78.50
2018-04-07T00:04:57.205Z,78.60
2018-04-07T00:07:25.024Z,79.20
2018-04-07T00:09:52.831Z,79.50
2018-04-07T00:12:20.657Z,80.30
2018-04-07T00:14:48.602Z,81.00
2018-04-07T00:17:16.472Z,81.00
2018-04-07T00:19:44.557Z,80.50
2018-04-07T00:22:12.476Z,82.30
2018-04-07T00:24:40.255Z,82.70
2018-04-07T00:27:08.190Z,83.30
2018-04-07T00:29:36.237Z,82.80
2018-04-07T00:32:04.029Z,84.30
2018-04-07T00:34:31.845Z,85.40
2018-04-07T00:36:59.664Z,84.70
2018-04-07T00:39:27.687Z,84.90
2018-04-07T00:41:55.591Z,85.60
2018-04-07T00:44:24.242Z,86.50
2018-04-07T00:46:52.032Z,86.40
2018-04-07T00:49:20.703Z,87.70
2018-04-07T00:51:48.559Z,87.60
2018-04-07T00:54:16.543Z,88.60
2018-04-07T00:56:44.386Z,89.10
2018-04-07T00:59:12.461Z,89.40
2018-04-07T01:01:40.260Z,88.80
2018-04-07T01:04:08.750Z,88.20
2018-04-07T01:06:37.454Z,88.80
2018-04-07T01:09:06.083Z,88.80
2018-04-07T01:11:33.942Z,89.40
2018-04-07T01:14:01.809Z,89.80
2018-04-07T01:16:29.676Z,90.10
2018-04-07T01:18:57.576Z,90.40
2018-04-07T01:21:26.337Z,90.80
2018-04-07T01:23:54.300Z,90.80
2018-04-07T01:26:22.211Z,90.60
2018-04-07T01:28:50.858Z,90.60
2018-04-07T01:31:18.836Z,90.50
2018-04-07T01:33:46.623Z,90.60
2018-04-07T01:36:15.453Z,91.00
2018-04-07T01:38:43.447Z,91.00
2018-04-07T01:41:11.321Z,91.30
2018-04-07T01:43:39.324Z,91.40
2018-04-07T01:46:08.100Z,92.00
2018-04-07T01:48:36.040Z,92.00
2018-04-07T01:51:03.863Z,92.10
2018-04-07T01:53:31.673Z,91.80
2018-04-07T01:55:59.538Z,92.30
2018-04-07T01:58:27.624Z,92.90
2018-04-07T02:00:55.459Z,93.40
2018-04-07T02:03:23.250Z,93.50
2018-04-07T02:05:51.221Z,93.90
2018-04-07T02:08:19.080Z,94.00
2018-04-07T02:10:46.945Z,93.50
2018-04-07T02:13:14.932Z,94.20
2018-04-07T02:15:42.698Z,94.70
2018-04-07T02:18:10.619Z,94.80
2018-04-07T02:20:38.480Z,95.10
2018-04-07T02:23:06.316Z,94.90
2018-04-07T02:25:34.968Z,95.50
2018-04-07T02:28:02.901Z,95.40
2018-04-07T02:30:31.022Z,96.10
2018-04-07T02:32:58.919Z,95.80
2018-04-07T02:35:27.527Z,95.70
2018-04-07T02:37:55.529Z,95.70
2018-04-07T02:40:23.333Z,95.80
2018-04-07T02:42:52.232Z,95.50
2018-04-07T02:45:20.747Z,95.60
2018-04-07T02:47:48.635Z,95.50
2018-04-07T02:50:16.607Z,95.50
2018-04-07T02:52:44.476Z,96.20
2018-04-07T02:55:12.481Z,97.00
2018-04-07T02:57:41.025Z,97.90
2018-04-07T03:00:08.892Z,97.90
2018-04-07T03:02:37.621Z,97.90
2018-04-07T03:05:06.267Z,98.60
2018-04-07T03:07:34.416Z,98.60
2018-04-07T03:10:02.307Z,99.20
2018-04-07T03:12:30.281Z,99.10
2018-04-07T03:14:58.043Z,98.70
2018-04-07T03:17:25.839Z,98.50
2018-04-07T03:19:54.529Z,99.20
2018-04-07T03:22:23.127Z,98.30
2018-04-07T03:24:50.900Z,98.30
2018-04-07T03:27:19.766Z,97.40
2018-04-07T03:29:48.431Z,97.60
2018-04-07T03:32:16.128Z,97.30
2018-04-07T03:34:44.895Z,98.30
2018-04-07T03:37:12.728Z,98.30
2018-04-07T03:39:40.605Z,98.80
2018-04-07T03:42:08.503Z,99.50
2018-04-07T03:44:37.149Z,99.90
2018-04-07T03:47:05.022Z,99.90
2018-04-07T03:49:32.784Z,99.90
2018-04-07T03:52:00.653Z,99.90
2018-04-07T03:54:28.689Z,99.90
2018-04-07T03:56:56.585Z,99.90
2018-04-07T03:59:24.578Z,99.90
2018-04-07T04:01:52.467Z,99.90
2018-04-07T04:04:21.213Z,99.90
2018-04-07T04:06:49.034Z,99.90
2018-04-07T04:09:17.766Z,99.90
2018-04-07T04:11:45.607Z,99.90
2018-04-07T04:14:13.603Z,99.90
2018-04-07T04:16:41.568Z,99.80
2018-04-07T04:19:09.437Z,99.90
2018-04-07T04:21:37.298Z,99.90
2018-04-07T04:24:05.273Z,99.90
2018-04-07T04:26:33.255Z,99.90
2018-04-07T04:29:01.109Z,99.90
2018-04-07T04:31:29.050Z,99.90
2018-04-07T04:33:57.048Z,99.90
2018-04-07T04:36:25.016Z,99.90
2018-04-07T04:38:52.855Z,99.90
2018-04-07T04:41:20.957Z,99.90
2018-04-07T04:43:49.164Z,99.90
2018-04-07T04:46:18.122Z,99.90
2018-04-07T04:48:45.923Z,99.90
2018-04-07T04:51:14.593Z,99.90
2018-04-07T04:53:42.338Z,99.90
2018-04-07T04:56:10.310Z,99.90
2018-04-07T04:58:39.405Z,99.90
2018-04-07T05:01:07.269Z,99.90
2018-04-07T05:03:35.043Z,99.90
2018-04-07T05:06:02.899Z,99.90
2018-04-07T05:08:30.772Z,99.90
2018-04-07T05:10:58.547Z,99.90
2018-04-07T05:13:26.360Z,99.90
2018-04-07T05:15:56.085Z,99.90
2018-04-07T05:18:23.939Z,99.90
2018-04-07T05:20:51.773Z,99.90
2018-04-07T05:23:20.527Z,99.90
2018-04-07T05:25:48.378Z,99.90
2018-04-07T05:28:16.264Z,99.90
2018-04-07T05:30:44.220Z,99.90
2018-04-07T05:33:12.099Z,99.90
2018-04-07T05:35:40.100Z,99.90
2018-04-07T05:38:08.668Z,99.90
2018-04-07T05:40:36.433Z,99.90
2018-04-07T05:43:04.298Z,99.90
2018-04-07T05:45:32.879Z,99.90
2018-04-07T05:48:00.654Z,99.90
2018-04-07T05:50:28.600Z,99.90
2018-04-07T05:52:56.581Z,99.90
2018-04-07T05:55:24.496Z,99.90
2018-04-07T05:57:52.364Z,99.90
2018-04-07T06:00:20.145Z,99.90
2018-04-07T06:02:48.035Z,99.90
2018-04-07T06:05:15.884Z,99.90
2018-04-07T06:07:43.657Z,99.90
2018-04-07T06:10:11.533Z,99.90
2018-04-07T06:12:39.336Z,99.90
2018-04-07T06:15:07.887Z,99.90
2018-04-07T06:17:35.778Z,99.90
2018-04-07T06:20:03.621Z,99.90
2018-04-07T06:22:31.672Z,99.90
2018-04-07T06:24:59.541Z,99.90
2018-04-07T06:27:27.424Z,99.90
2018-04-07T06:29:55.378Z,99.90
2018-04-07T06:32:23.272Z,99.90
2018-04-07T06:34:51.085Z,99.90
2018-04-07T06:37:18.911Z,99.90
2018-04-07T06:39:46.751Z,99.90
2018-04-07T06:42:14.619Z,99.90
2018-04-07T06:44:42.489Z,99.90
2018-04-07T06:47:10.676Z,99.90
2018-04-07T06:49:38.393Z,99.90
2018-04-07T06:52:06.172Z,99.90
2018-04-07T06:54:34.044Z,99.90
2018-04-07T06:57:02.029Z,99.90
2018-04-07T06:59:29.999Z,99.90
2018-04-07T07:01:57.967Z,99.90
2018-04-07T07:04:25.938Z,99.90
2018-04-07T07:06:53.831Z,99.90
2018-04-07T07:09:21.855Z,99.90
2018-04-07T07:11:49.676Z,99.90
2018-04-07T07:14:18.427Z,99.90
2018-04-07T07:16:46.397Z,99.90
2018-04-07T07:19:14.354Z,99.90
2018-04-07T07:21:42.147Z,99.90
2018-04-07T07:24:10.199Z,99.90
2018-04-07T07:26:38.034Z,99.70
2018-04-07T07:29:05.835Z,99.40
2018-04-07T07:31:33.641Z,98.50
2018-04-07T07:34:44.701Z,99.90
2018-04-07T07:37:12.544Z,99.90
2018-04-07T07:39:40.374Z,93.50
2018-04-07T07:42:08.326Z,90.30
2018-04-07T07:44:36.160Z,90.10
2018-04-07T07:47:04.052Z,85.20
2018-04-07T07:49:32.569Z,84.70
2018-04-07T07:52:00.470Z,84.60
2018-04-07T07:54:28.312Z,80.90
2018-04-07T07:56:56.178Z,79.60
2018-04-07T07:59:24.011Z,81.10
2018-04-07T08:01:52.841Z,76.10
2018-04-07T08:04:20.665Z,76.00
2018-04-07T08:06:49.323Z,70.80
2018-04-07T08:09:17.103Z,70.80
2018-04-07T08:11:44.951Z,70.50
2018-04-07T08:14:12.910Z,70.30
2018-04-07T08:16:40.719Z,67.20
2018-04-07T08:19:09.260Z,66.40
2018-04-07T08:21:37.194Z,66.40
2018-04-07T08:24:05.036Z,62.90
2018-04-07T08:26:33.709Z,60.80
2018-04-07T08:29:01.573Z,60.70
2018-04-07T08:31:30.156Z,60.20
2018-04-07T08:33:58.644Z,60.20
2018-04-07T08:36:27.227Z,60.30
2018-04-07T08:38:55.894Z,61.30
2018-04-07T08:41:24.946Z,61.30
2018-04-07T08:43:53.013Z,58.60
2018-04-07T08:46:21.042Z,58.70
2018-04-07T08:48:49.717Z,57.70
2018-04-07T08:51:18.767Z,55.70
2018-04-07T08:53:46.728Z,55.70
2018-04-07T08:56:14.504Z,55.50
2018-04-07T08:58:42.457Z,54.90
2018-04-07T09:01:13.804Z,54.50
2018-04-07T09:03:41.683Z,53.40
2018-04-07T09:06:09.498Z,51.90
2018-04-07T09:08:38.048Z,53.70
2018-04-07T09:11:06.657Z,50.70
2018-04-07T09:13:34.555Z,50.70
2018-04-07T09:16:03.053Z,50.50
2018-04-07T09:18:30.931Z,50.60
2018-04-07T09:20:58.822Z,48.10
2018-04-07T09:23:26.677Z,48.00
2018-04-07T09:25:54.572Z,48.40
2018-04-07T09:28:22.517Z,46.90
2018-04-07T09:30:50.385Z,48.10
2018-04-07T09:33:19.032Z,48.00
2018-04-07T09:35:46.970Z,47.10
2018-04-07T09:38:14.858Z,47.20
2018-04-07T09:40:42.608Z,46.60
2018-04-07T09:43:11.184Z,46.50
2018-04-07T09:45:39.075Z,47.20
2018-04-07T09:48:06.833Z,45.20
2018-04-07T09:50:35.430Z,44.90
2018-04-07T09:53:04.008Z,42.70
2018-04-07T09:55:32.558Z,43.10
2018-04-07T09:58:00.377Z,43.10
2018-04-07T10:00:28.236Z,44.10
2018-04-07T10:03:02.089Z,43.10
2018-04-07T10:05:29.911Z,43.00
2018-04-07T10:07:57.750Z,42.70
2018-04-07T10:10:26.401Z,42.50
2018-04-07T10:12:54.197Z,42.40
2018-04-07T10:15:22.056Z,42.80
2018-04-07T10:17:49.876Z,41.40
2018-04-07T10:20:17.748Z,41.20
2018-04-07T10:22:45.668Z,42.70
2018-04-07T10:25:14.264Z,41.60
2018-04-07T10:27:43.037Z,39.60
2018-04-07T10:30:11.623Z,39.30
2018-04-07T10:32:40.250Z,38.90
2018-04-07T10:35:08.091Z,38.80
2018-04-07T10:37:36.830Z,37.40
2018-04-07T10:40:04.876Z,37.40
2018-04-07T10:42:32.691Z,38.70
2018-04-07T10:45:00.467Z,37.80
2018-04-07T10:47:29.136Z,37.20
2018-04-07T10:49:56.960Z,37.10
2018-04-07T10:52:24.736Z,37.00
2018-04-07T10:54:52.613Z,37.40
2018-04-07T10:57:20.546Z,35.50
2018-04-07T10:59:48.384Z,34.90
2018-04-07T11:02:17.126Z,34.40
2018-04-07T11:04:44.902Z,34.40
2018-04-07T11:07:13.135Z,34.80
2018-04-07T11:09:40.991Z,36.00
2018-04-07T11:12:08.856Z,35.20
2018-04-07T11:14:36.902Z,34.60
2018-04-07T11:17:05.380Z,33.40
2018-04-07T11:19:33.218Z,33.90
2018-04-07T11:22:01.063Z,33.50
2018-04-07T11:24:28.856Z,33.70
2018-04-07T11:26:56.663Z,34.40
2018-04-07T11:29:24.744Z,33.90
2018-04-07T11:31:52.599Z,32.50
2018-04-07T11:34:22.853Z,32.90
2018-04-07T11:36:50.669Z,32.80
2018-04-07T11:39:19.536Z,33.00
2018-04-07T11:41:48.091Z,33.30
2018-04-07T11:44:15.850Z,34.30
2018-04-07T11:46:43.696Z,33.60
2018-04-07T11:49:12.215Z,31.60
2018-04-07T11:51:39.977Z,31.50
2018-04-07T11:54:07.899Z,31.20
2018-04-07T11:56:35.637Z,31.80
2018-04-07T11:59:03.487Z,31.70
2018-04-07T12:01:31.263Z,30.90
2018-04-07T12:03:59.111Z,30.60
2018-04-07T12:06:26.920Z,30.30
2018-04-07T12:08:55.969Z,30.90
2018-04-07T12:11:25.544Z,31.00
2018-04-07T12:13:54.060Z,30.80
2018-04-07T12:16:21.988Z,30.00
2018-04-07T12:18:51.476Z,30.80
2018-04-07T12:21:19.365Z,30.80
2018-04-07T12:23:48.026Z,30.10
2018-04-07T12:26:15.859Z,30.00
2018-04-07T12:28:43.715Z,29.50
2018-04-07T12:31:11.612Z,30.10
2018-04-07T12:33:39.335Z,29.70
2018-04-07T12:36:07.090Z,29.40
2018-04-07T12:38:34.958Z,29.30
2018-04-07T12:41:02.683Z,28.90
2018-04-07T12:43:30.504Z,29.20
2018-04-07T12:45:58.360Z,29.10
2018-04-07T12:48:26.054Z,29.20
2018-04-07T12:50:53.879Z,29.00
2018-04-07T12:53:21.811Z,29.50
2018-04-07T12:55:50.388Z,29.40
2018-04-07T12:58:18.168Z,29.40
2018-04-07T13:00:46.433Z,30.60
2018-04-07T13:03:14.254Z,29.70
2018-04-07T13:05:42.068Z,29.10
2018-04-07T13:08:11.124Z,29.20
2018-04-07T13:10:38.900Z,28.30
2018-04-07T13:13:06.728Z,28.40
2018-04-07T13:15:34.578Z,28.50
2018-04-07T13:18:03.120Z,27.80
2018-04-07T13:20:32.211Z,27.70
2018-04-07T13:23:00.852Z,26.30
2018-04-07T13:25:29.387Z,25.40
2018-04-07T13:27:57.225Z,25.40
2018-04-07T13:30:25.121Z,25.90
2018-04-07T13:32:52.848Z,25.40
2018-04-07T13:35:20.658Z,25.10
2018-04-07T13:37:48.482Z,24.40
2018-04-07T13:40:16.165Z,25.10
2018-04-07T13:42:43.934Z,25.10
2018-04-07T13:45:11.817Z,24.90
2018-04-07T13:47:39.630Z,25.80
2018-04-07T13:50:07.347Z,25.50
2018-04-07T13:52:35.209Z,26.30
2018-04-07T13:55:03.054Z,27.10
2018-04-07T13:57:30.818Z,27.50
2018-04-07T13:59:58.758Z,28.10
2018-04-07T14:02:26.678Z,27.40
2018-04-07T14:04:54.412Z,27.10
2018-04-07T14:07:22.182Z,27.80
2018-04-07T14:09:51.092Z,28.20
2018-04-07T14:12:18.926Z,28.40
2018-04-07T14:14:46.712Z,29.20
2018-04-07T14:17:14.467Z,28.30
2018-04-07T14:19:42.320Z,28.90
2018-04-07T14:22:10.092Z,28.70
2018-04-07T14:24:37.935Z,28.70
2018-04-07T14:27:05.859Z,29.00
2018-04-07T14:29:33.676Z,28.50
2018-04-07T14:32:01.560Z,28.90
2018-04-07T14:34:29.438Z,29.00
2018-04-07T14:36:57.432Z,27.60
2018-04-07T14:39:25.307Z,28.10
2018-04-07T14:41:53.088Z,28.00
2018-04-07T14:44:21.766Z,28.00
2018-04-07T14:46:49.612Z,27.60
2018-04-07T14:49:17.525Z,28.10
2018-04-07T14:51:46.105Z,27.90
2018-04-07T14:54:14.761Z,28.80
2018-04-07T14:56:42.610Z,28.80
2018-04-07T14:59:10.455Z,28.80
2018-04-07T15:01:38.254Z,29.10
2018-04-07T15:04:05.975Z,30.00
2018-04-07T15:06:33.712Z,29.40
2018-04-07T15:09:02.300Z,29.90
2018-04-07T15:11:30.858Z,29.80
2018-04-07T15:13:58.601Z,29.80
2018-04-07T15:16:26.380Z,29.60
2018-04-07T15:18:54.182Z,30.00
2018-04-07T15:21:22.822Z,29.50
2018-04-07T15:23:51.530Z,29.70
2018-04-07T15:26:19.415Z,29.60
2018-04-07T15:28:47.961Z,28.90
2018-04-07T15:31:16.543Z,29.80
2018-04-07T15:33:44.424Z,29.80
2018-04-07T15:36:12.197Z,29.50
2018-04-07T15:38:40.305Z,29.60
2018-04-07T15:41:08.149Z,29.10
2018-04-07T15:43:36.719Z,29.50
2018-04-07T15:46:04.532Z,29.50
2018-04-07T15:48:32.380Z,29.40
2018-04-07T15:51:00.210Z,29.60
2018-04-07T15:53:28.129Z,30.00
2018-04-07T15:55:55.895Z,29.80
2018-04-07T15:58:24.542Z,29.50
2018-04-07T16:00:52.422Z,30.00
2018-04-07T16:03:20.998Z,29.40
2018-04-07T16:05:49.655Z,29.30
2018-04-07T16:08:17.484Z,29.30
2018-04-07T16:10:45.312Z,29.90
2018-04-07T16:13:13.885Z,30.00
2018-04-07T16:15:41.898Z,29.90
2018-04-07T16:18:09.684Z,29.90
2018-04-07T16:20:37.476Z,29.70
2018-04-07T16:23:05.330Z,29.70
2018-04-07T16:25:33.075Z,30.00
2018-04-07T16:28:00.869Z,29.90
2018-04-07T16:30:28.836Z,30.30
2018-04-07T16:32:56.714Z,31.00
2018-04-07T16:35:24.548Z,30.80
2018-04-07T16:37:52.402Z,30.60
2018-04-07T16:40:20.173Z,31.50
2018-04-07T16:42:47.940Z,31.10
2018-04-07T16:45:15.862Z,31.40
2018-04-07T16:47:43.680Z,31.20
2018-04-07T16:50:11.583Z,32.00
2018-04-07T16:52:39.364Z,32.10
2018-04-07T16:55:07.184Z,32.60
2018-04-07T16:57:35.054Z,32.60
2018-04-07T17:00:02.850Z,33.20
2018-04-07T17:02:30.612Z,33.70
2018-04-07T17:04:58.330Z,33.60
2018-04-07T17:07:26.223Z,34.30
2018-04-07T17:09:54.062Z,34.40
2018-04-07T17:12:21.904Z,34.80
2018-04-07T17:14:49.878Z,34.70
2018-04-07T17:17:17.621Z,35.00
2018-04-07T17:19:46.181Z,36.50
2018-04-07T17:22:13.989Z,36.40
2018-04-07T17:24:41.728Z,36.30
2018-04-07T17:27:09.703Z,37.10
2018-04-07T17:29:38.297Z,38.00
2018-04-07T17:32:06.108Z,37.90
2018-04-07T17:34:33.998Z,38.70
2018-04-07T17:37:01.791Z,39.00
2018-04-07T17:39:30.963Z,39.10
2018-04-07T17:42:00.967Z,39.70
2018-04-07T17:44:29.517Z,39.60
2018-04-07T17:46:59.149Z,41.50
2018-04-07T17:49:28.140Z,41.50
2018-04-07T17:51:56.007Z,41.20
2018-04-07T17:54:23.784Z,41.80
2018-04-07T17:56:51.529Z,42.40
2018-04-07T17:59:19.386Z,42.90
2018-04-07T18:01:47.132Z,43.50
2018-04-07T18:04:14.869Z,44.00
2018-04-07T18:06:43.628Z,43.70
2018-04-07T18:09:11.475Z,43.70
2018-04-07T18:11:39.410Z,43.70
2018-04-07T18:14:07.218Z,43.90
2018-04-07T18:16:34.954Z,44.70
2018-04-07T18:19:02.744Z,45.70
2018-04-07T18:21:30.528Z,45.80
2018-04-07T18:23:58.400Z,45.60
2018-04-07T18:26:26.234Z,45.00
2018-04-07T18:28:54.095Z,45.90
2018-04-07T18:31:21.901Z,45.80
2018-04-07T18:33:50.634Z,46.30
2018-04-07T18:36:18.430Z,46.30
2018-04-07T18:38:46.292Z,46.40
2018-04-07T18:41:14.874Z,45.50
2018-04-07T18:43:43.376Z,45.50
2018-04-07T18:46:12.665Z,46.20
2018-04-07T18:48:41.251Z,46.10
2018-04-07T18:51:09.856Z,46.70
2018-04-07T18:53:37.656Z,46.60
2018-04-07T18:56:05.774Z,46.60
2018-04-07T18:58:33.772Z,47.10
2018-04-07T19:01:01.727Z,47.00
2018-04-07T19:03:29.641Z,47.80
2018-04-07T19:05:57.612Z,47.70
2018-04-07T19:08:25.467Z,47.80
2018-04-07T19:10:54.083Z,47.30
2018-04-07T19:13:22.006Z,47.30
2018-04-07T19:15:50.111Z,47.40
2018-04-07T19:18:17.954Z,48.10
2018-04-07T19:20:46.669Z,49.50
2018-04-07T19:23:14.674Z,49.60
2018-04-07T19:25:42.662Z,50.20
2018-04-07T19:28:11.355Z,50.40
2018-04-07T19:30:39.343Z,50.40
2018-04-07T19:33:07.286Z,50.00
2018-04-07T19:35:35.358Z,50.60
2018-04-07T19:38:04.130Z,50.10
2018-04-07T19:40:32.025Z,50.10
2018-04-07T19:43:00.044Z,49.70
2018-04-07T19:45:28.064Z,49.70
2018-04-07T19:47:55.965Z,49.90
2018-04-07T19:50:23.880Z,50.30
2018-04-07T19:52:51.761Z,50.20
2018-04-07T19:55:19.727Z,49.80
2018-04-07T19:57:47.596Z,49.60
2018-04-07T20:00:15.458Z,49.70
2018-04-07T20:02:43.328Z,50.30
2018-04-07T20:05:11.999Z,50.90
2018-04-07T20:07:40.240Z,50.90
2018-04-07T20:10:08.113Z,51.10
2018-04-07T20:12:36.169Z,51.50
2018-04-07T20:15:04.023Z,51.80
2018-04-07T20:17:32.714Z,52.80
2018-04-07T20:20:00.713Z,52.70
2018-04-07T20:22:28.769Z,53.30
2018-04-07T20:24:56.920Z,52.50
2018-04-07T20:27:24.887Z,52.60
2018-04-07T20:29:53.572Z,52.50
2018-04-07T20:32:22.192Z,52.60
2018-04-07T20:34:50.899Z,52.50
2018-04-07T20:37:18.799Z,52.50
2018-04-07T20:39:47.436Z,53.00
2018-04-07T20:42:26.471Z,52.50
2018-04-07T20:44:54.475Z,52.40
2018-04-07T20:47:24.378Z,52.30
2018-04-07T20:49:52.365Z,51.90
2018-04-07T20:52:20.478Z,52.50
2018-04-07T20:54:48.894Z,52.80
2018-04-07T20:57:18.150Z,53.10
2018-04-07T20:59:46.192Z,52.80
2018-04-07T21:02:23.644Z,52.70
2018-04-07T21:04:52.370Z,53.00
2018-04-07T21:07:21.484Z,52.90
2018-04-07T21:09:49.465Z,52.90
2018-04-07T21:12:17.416Z,52.80
2018-04-07T21:14:45.351Z,53.30
2018-04-07T21:19:51.474Z,54.20
2018-04-07T21:22:20.367Z,54.30
2018-04-07T21:24:50.844Z,54.20
2018-04-07T21:27:22.392Z,54.40
2018-04-07T21:29:50.458Z,54.80
2018-04-07T21:32:18.619Z,54.80
2018-04-07T21:34:49.348Z,55.70
2018-04-07T21:37:18.394Z,55.40
2018-04-07T21:39:47.458Z,56.50
2018-04-07T21:42:16.195Z,56.20
2018-04-07T21:44:44.066Z,56.10
2018-04-07T21:47:12.078Z,56.20
2018-04-07T21:49:49.104Z,56.70
2018-04-07T21:52:20.724Z,57.20
2018-04-07T21:54:59.460Z,57.30
2018-04-07T21:57:30.613Z,57.70
2018-04-07T22:00:10.123Z,58.00
2018-04-07T22:02:38.792Z,57.90
2018-04-07T22:05:07.681Z,58.30
2018-04-07T22:07:36.521Z,58.30
2018-04-07T22:10:08.177Z,58.50
2018-04-07T22:12:36.358Z,59.20
2018-04-07T22:15:07.080Z,60.40
2018-04-07T22:17:38.784Z,61.80
2018-04-07T22:20:06.708Z,61.40
2018-04-07T22:22:34.966Z,62.50
2018-04-07T22:25:03.764Z,63.10
2018-04-07T22:27:32.299Z,63.90
2018-04-07T22:30:00.229Z,63.70
2018-04-07T22:32:28.082Z,64.10
2018-04-07T22:34:55.950Z,64.70
2018-04-07T22:37:24.144Z,65.40
2018-04-07T22:39:52.815Z,66.60
2018-04-07T22:42:20.849Z,66.60
2018-04-07T22:44:48.778Z,67.70
2018-04-07T22:47:16.683Z,67.60
2018-04-07T22:49:44.486Z,67.70
2018-04-07T22:52:12.334Z,68.80
2018-04-07T22:54:40.197Z,69.70
2018-04-07T22:57:07.930Z,70.40
2018-04-07T22:59:35.759Z,70.90
2018-04-07T23:02:04.295Z,71.80
2018-04-07T23:04:32.115Z,71.70
2018-04-07T23:07:00.751Z,73.10
2018-04-07T23:09:28.751Z,72.90
2018-04-07T23:11:56.578Z,72.90
2018-04-07T23:14:24.425Z,74.20
2018-04-07T23:16:52.241Z,74.40
2018-04-07T23:19:20.007Z,73.80
2018-04-07T23:21:47.846Z,74.30
2018-04-07T23:24:15.624Z,75.10
2018-04-07T23:26:43.482Z,75.40
2018-04-07T23:29:11.261Z,76.10
2018-04-07T23:31:39.026Z,76.70
2018-04-07T23:34:07.655Z,77.30
2018-04-07T23:36:36.238Z,77.70
2018-04-07T23:39:04.146Z,77.70
2018-04-07T23:41:32.035Z,78.00
2018-04-07T23:43:59.790Z,78.40
2018-04-07T23:46:27.578Z,78.90
2018-04-07T23:48:55.331Z,79.40
2018-04-07T23:51:23.094Z,79.20
2018-04-07T23:53:50.907Z,79.70
2018-04-07T23:56:18.632Z,80.10
2018-04-07T23:58:46.460Z,80.70
